Airfield :
LOGIN :

Register | Disclaimer

   EN    FR    IT 

 










Legend :    VFR   Marginal VFR   IFR   Intensive IFR   Very Intensive IFR
Visi :
Ceiling :
>= 8 km
>= 3000ft
5 to 8 km
1000 to 3000 ft
1500m to 5 km
500 to 1000 ft
800 to 1500m
200 to 500 ft
< 800m
< 200 ft
Symbols :   Thunderstorms  Fog  Heavy snow  Heavy precipitations  Wind > 20 kt
SIGMETs :     Misc.  Thunderstorms  Icing  Turbulence  Mountain Waves  Volcanic Ashes






- Airport Elevation : 1947 ft
- IATA code : OBF


EDMO - Oberpfaffenhofen

CURRENT METAR :
  • 200250Z AUTO 22008KT 9999 // FEW030/// BKN043/// OVC055/// 01/M02 Q1023

EXPIRED METARs :
  • 200220Z AUTO 20005KT 9999 // SCT054/// OVC140/// 01/M02 Q1024
  • 200150Z AUTO 21006KT 9999 // FEW062/// BKN140/// M01/M03 Q1024
  • 200120Z AUTO 21007KT 9999 // BKN150/// M01/M03 Q1024
  • 200050Z AUTO 21006KT 9999 // SCT150/// M00/M03 Q1025
  • 200020Z AUTO 21006KT 9999 // BKN150/// M00/M03 Q1024

Expired Forecast.



MET'MAP, your aeronautical weather chart ! - Copyright ORBIFLY December 2007 - Disclaimer

ORBIFLY MET'MAP TEAM :

Programming & Development : Alexandra Zaïnal
Concept & original design : Baudouin d'Aumeries
Assistance for programming : Marc-Olivier Méhu
Technical & hardware support : Manuel Goepfert

Contact : metmap@orbifly.com




SOURCES & CREDITS :

   NOAA